Wetterdaten: Woche 04.09.06 - 10.09.06 (KW36)
Datum Zeit Temperatur Luftfeuchte Luftdruck Niederschlag Windrichtung Wind
04.09.2006 00:00 19,3 C 87 % 1022 hPa 0,0 l/m S 11,1 km/h (2 Bft)
04.09.2006 01:00 18,9 C 90 % 1022 hPa 0,0 l/m S-SW 8,5 km/h (2 Bft)
04.09.2006 02:00 18,5 C 93 % 1022 hPa 0,0 l/m S 10,3 km/h (2 Bft)
04.09.2006 03:00 18,7 C 93 % 1023 hPa 0,0 l/m S-SW 10,8 km/h (2 Bft)
04.09.2006 04:00 18,7 C 92 % 1023 hPa 0,0 l/m W-SW 7,9 km/h (2 Bft)
04.09.2006 05:00 19,2 C 87 % 1023 hPa 0,0 l/m SW 9,0 km/h (2 Bft)
04.09.2006 06:00 19,4 C 84 % 1024 hPa 0,0 l/m S-SW 9,4 km/h (2 Bft)
04.09.2006 07:00 19,3 C 85 % 1024 hPa 0,0 l/m S-SW 11,8 km/h (2 Bft)
04.09.2006 08:00 19,4 C 87 % 1024 hPa 0,0 l/m S 11,4 km/h (2 Bft)
04.09.2006 09:00 20,7 C 81 % 1025 hPa 0,0 l/m W-SW 13,3 km/h (3 Bft)
04.09.2006 10:00 22,0 C 73 % 1025 hPa 0,0 l/m W-SW 11,4 km/h (2 Bft)
04.09.2006 11:00 22,3 C 69 % 1025 hPa 0,0 l/m W-SW 11,0 km/h (2 Bft)
04.09.2006 12:00 22,3 C 71 % 1025 hPa 0,0 l/m SW 7,7 km/h (2 Bft)
04.09.2006 13:00 23,5 C 64 % 1025 hPa 0,0 l/m SW 10,6 km/h (2 Bft)
04.09.2006 14:00 25,3 C 57 % 1024 hPa 0,0 l/m W-SW 8,4 km/h (2 Bft)
04.09.2006 15:00 25,1 C 56 % 1024 hPa 0,0 l/m W 11,3 km/h (2 Bft)
04.09.2006 16:00 24,9 C 56 % 1024 hPa 0,0 l/m W-SW 11,9 km/h (2 Bft)
04.09.2006 17:00 24,3 C 54 % 1025 hPa 0,0 l/m W 11,6 km/h (2 Bft)
04.09.2006 18:00 24,0 C 56 % 1025 hPa 0,0 l/m W-SW 8,3 km/h (2 Bft)
04.09.2006 19:00 22,6 C 64 % 1025 hPa 0,0 l/m SW 6,1 km/h (2 Bft)
04.09.2006 20:00 21,2 C 71 % 1025 hPa 0,0 l/m SW 4,2 km/h (1 Bft)
04.09.2006 21:00 19,6 C 79 % 1025 hPa 0,0 l/m W-SW 4,1 km/h (1 Bft)
04.09.2006 22:00 19,1 C 84 % 1025 hPa 0,0 l/m SW 7,2 km/h (2 Bft)
04.09.2006 23:00 19,4 C 83 % 1026 hPa 0,0 l/m W-SW 6,7 km/h (2 Bft)
05.09.2006 00:00 19,2 C 83 % 1026 hPa 0,0 l/m S 3,2 km/h (1 Bft)
05.09.2006 01:00 17,5 C 90 % 1026 hPa 0,0 l/m N 0,0 km/h (0 Bft)
05.09.2006 02:00 16,3 C 95 % 1026 hPa 0,0 l/m N 0,0 km/h (0 Bft)
05.09.2006 03:00 15,9 C 98 % 1026 hPa 0,0 l/m N 0,0 km/h (0 Bft)
05.09.2006 04:00 16,2 C 99 % 1026 hPa 0,0 l/m N 0,0 km/h (0 Bft)
05.09.2006 05:00 16,3 C 99 % 1025 hPa 0,0 l/m N 0,0 km/h (0 Bft)
05.09.2006 06:00 16,1 C 100 % 1025 hPa 0,0 l/m N 0,0 km/h (0 Bft)
05.09.2006 07:00 16,1 C 100 % 1026 hPa 0,0 l/m N 0,0 km/h (0 Bft)
05.09.2006 08:00 16,9 C 100 % 1026 hPa 0,0 l/m NW 0,6 km/h (0 Bft)
05.09.2006 09:00 18,5 C 94 % 1026 hPa 0,0 l/m NW 2,6 km/h (1 Bft)
05.09.2006 10:00 21,0 C 77 % 1026 hPa 0,0 l/m NW 4,0 km/h (1 Bft)
05.09.2006 11:00 22,4 C 66 % 1026 hPa 0,0 l/m W 5,6 km/h (1 Bft)
05.09.2006 12:00 22,9 C 61 % 1025 hPa 0,0 l/m W-SW 5,9 km/h (2 Bft)
05.09.2006 13:00 24,7 C 50 % 1025 hPa 0,0 l/m W 8,1 km/h (2 Bft)
05.09.2006 14:00 26,4 C 45 % 1024 hPa 0,0 l/m W 6,1 km/h (2 Bft)
05.09.2006 15:00 27,0 C 44 % 1024 hPa 0,0 l/m N 4,2 km/h (1 Bft)
05.09.2006 16:00 26,5 C 43 % 1023 hPa 0,0 l/m NW 6,5 km/h (2 Bft)
05.09.2006 17:00 25,5 C 45 % 1023 hPa 0,0 l/m NW 3,6 km/h (1 Bft)
05.09.2006 18:00 26,0 C 45 % 1022 hPa 0,0 l/m N 3,5 km/h (1 Bft)
05.09.2006 19:00 23,7 C 57 % 1022 hPa 0,0 l/m N-NO 6,6 km/h (2 Bft)
05.09.2006 20:00 21,5 C 69 % 1023 hPa 0,0 l/m N-NO 2,6 km/h (1 Bft)
05.09.2006 21:00 19,5 C 78 % 1023 hPa 0,0 l/m N-NW 1,5 km/h (1 Bft)
05.09.2006 22:00 18,2 C 85 % 1023 hPa 0,0 l/m NW 4,1 km/h (1 Bft)
05.09.2006 23:00 17,2 C 90 % 1023 hPa 0,0 l/m N-NW 3,5 km/h (1 Bft)
06.09.2006 00:00 16,3 C 92 % 1023 hPa 0,0 l/m NW 1,2 km/h (1 Bft)
06.09.2006 01:00 15,6 C 95 % 1022 hPa 0,0 l/m NW 1,2 km/h (1 Bft)
06.09.2006 02:00 15,1 C 97 % 1022 hPa 0,0 l/m NW 3,0 km/h (1 Bft)
06.09.2006 03:00 14,7 C 99 % 1021 hPa 0,0 l/m NW 4,2 km/h (1 Bft)
06.09.2006 04:00 14,3 C 99 % 1021 hPa 0,0 l/m NW 2,8 km/h (1 Bft)
06.09.2006 05:00 13,9 C 100 % 1020 hPa 0,0 l/m W-NW 5,1 km/h (1 Bft)
06.09.2006 06:00 13,7 C 100 % 1020 hPa 0,0 l/m NW 5,6 km/h (1 Bft)
06.09.2006 07:00 13,7 C 100 % 1020 hPa 0,0 l/m W-NW 3,6 km/h (1 Bft)
06.09.2006 08:00 14,4 C 100 % 1020 hPa 0,0 l/m N 4,8 km/h (1 Bft)
06.09.2006 09:00 16,3 C 94 % 1020 hPa 0,0 l/m N 7,9 km/h (2 Bft)
06.09.2006 10:00 19,2 C 80 % 1020 hPa 0,0 l/m N 8,5 km/h (2 Bft)
06.09.2006 11:00 21,8 C 70 % 1020 hPa 0,0 l/m N-NO 8,6 km/h (2 Bft)
06.09.2006 12:00 23,2 C 64 % 1019 hPa 0,0 l/m O-NO 10,3 km/h (2 Bft)
06.09.2006 13:00 24,8 C 54 % 1019 hPa 0,0 l/m N-NO 10,1 km/h (2 Bft)
06.09.2006 14:00 25,2 C 52 % 1019 hPa 0,0 l/m N 7,2 km/h (2 Bft)
06.09.2006 15:00 25,3 C 52 % 1018 hPa 0,0 l/m N 5,6 km/h (1 Bft)
06.09.2006 16:00 24,8 C 50 % 1018 hPa 0,0 l/m NO 7,0 km/h (2 Bft)
06.09.2006 17:00 24,4 C 56 % 1018 hPa 0,0 l/m N 6,4 km/h (2 Bft)
06.09.2006 18:00 23,8 C 59 % 1017 hPa 0,0 l/m N-NO 3,9 km/h (1 Bft)
06.09.2006 19:00 22,5 C 70 % 1017 hPa 0,0 l/m N 0,0 km/h (0 Bft)
06.09.2006 20:00 20,6 C 76 % 1017 hPa 0,0 l/m N 0,0 km/h (0 Bft)
06.09.2006 21:00 19,4 C 82 % 1017 hPa 0,0 l/m N 0,0 km/h (0 Bft)
06.09.2006 22:00 18,3 C 88 % 1017 hPa 0,0 l/m N 0,0 km/h (0 Bft)
06.09.2006 23:00 17,1 C 94 % 1017 hPa 0,0 l/m N 0,0 km/h (0 Bft)
07.09.2006 00:00 16,4 C 97 % 1016 hPa 0,0 l/m N 0,0 km/h (0 Bft)
07.09.2006 01:00 15,9 C 99 % 1016 hPa 0,0 l/m N 0,0 km/h (0 Bft)
07.09.2006 02:00 15,7 C 100 % 1016 hPa 0,0 l/m N 0,0 km/h (0 Bft)
07.09.2006 03:00 15,0 C 99 % 1015 hPa 0,0 l/m N 0,0 km/h (0 Bft)
07.09.2006 04:00 14,2 C 100 % 1015 hPa 0,0 l/m N 0,0 km/h (0 Bft)
07.09.2006 05:00 13,6 C 100 % 1015 hPa 0,0 l/m N 0,0 km/h (0 Bft)
07.09.2006 06:00 13,3 C 100 % 1015 hPa 0,0 l/m N 0,0 km/h (0 Bft)
07.09.2006 07:00 13,0 C 100 % 1015 hPa 0,0 l/m N 0,0 km/h (0 Bft)
07.09.2006 08:00 13,4 C 100 % 1015 hPa 0,0 l/m N 0,0 km/h (0 Bft)
07.09.2006 09:00 15,6 C 100 % 1015 hPa 0,0 l/m S 3,2 km/h (1 Bft)
07.09.2006 10:00 17,8 C 100 % 1015 hPa 0,0 l/m S 7,2 km/h (2 Bft)
07.09.2006 11:00 21,3 C 86 % 1015 hPa 0,0 l/m S 7,3 km/h (2 Bft)
07.09.2006 12:00 23,7 C 69 % 1015 hPa 0,0 l/m S 8,6 km/h (2 Bft)
07.09.2006 13:00 26,3 C 48 % 1015 hPa 0,0 l/m W 6,1 km/h (2 Bft)
07.09.2006 14:00 28,1 C 42 % 1014 hPa 0,0 l/m W 7,0 km/h (2 Bft)
07.09.2006 15:00 28,9 C 36 % 1014 hPa 0,0 l/m S 4,4 km/h (1 Bft)
07.09.2006 16:00 27,8 C 45 % 1014 hPa 0,0 l/m S-SW 8,3 km/h (2 Bft)
07.09.2006 17:00 26,0 C 57 % 1014 hPa 0,0 l/m S 6,3 km/h (2 Bft)
07.09.2006 18:00 23,0 C 73 % 1014 hPa 2,0 l/m W-SW 6,0 km/h (2 Bft)
07.09.2006 19:00 20,0 C 84 % 1015 hPa 0,0 l/m N-NW 3,0 km/h (1 Bft)
07.09.2006 20:00 18,9 C 93 % 1016 hPa 17,0 l/m W-NW 7,6 km/h (2 Bft)
07.09.2006 21:00 17,9 C 98 % 1016 hPa 0,0 l/m W 3,5 km/h (1 Bft)
07.09.2006 22:00 17,4 C 99 % 1016 hPa 0,0 l/m W-NW 6,8 km/h (2 Bft)
07.09.2006 23:00 17,7 C 98 % 1018 hPa 0,0 l/m NW 14,3 km/h (3 Bft)
08.09.2006 00:00 16,9 C 95 % 1019 hPa 0,0 l/m NW 13,7 km/h (3 Bft)
08.09.2006 01:00 16,0 C 96 % 1019 hPa 0,0 l/m NW 11,3 km/h (2 Bft)
08.09.2006 02:00 15,5 C 94 % 1020 hPa 0,0 l/m NW 10,9 km/h (2 Bft)
08.09.2006 03:00 14,8 C 91 % 1021 hPa 0,0 l/m N-NW 10,3 km/h (2 Bft)
08.09.2006 04:00 14,2 C 82 % 1022 hPa 0,0 l/m N-NO 9,6 km/h (2 Bft)
08.09.2006 05:00 13,3 C 78 % 1022 hPa 0,0 l/m N-NO 7,9 km/h (2 Bft)
08.09.2006 06:00 12,8 C 81 % 1023 hPa 0,0 l/m N-NO 6,3 km/h (2 Bft)
08.09.2006 07:00 12,5 C 81 % 1024 hPa 0,0 l/m NO 7,5 km/h (2 Bft)
08.09.2006 08:00 12,3 C 81 % 1025 hPa 0,0 l/m N-NO 8,7 km/h (2 Bft)
08.09.2006 09:00 13,1 C 77 % 1025 hPa 0,0 l/m N-NO 11,2 km/h (2 Bft)
08.09.2006 10:00 14,3 C 66 % 1026 hPa 0,0 l/m N-NO 12,2 km/h (2 Bft)
08.09.2006 11:00 15,6 C 57 % 1026 hPa 0,0 l/m N-NO 12,1 km/h (2 Bft)
08.09.2006 12:00 16,1 C 55 % 1026 hPa 0,0 l/m N-NO 10,9 km/h (2 Bft)
08.09.2006 13:00 17,7 C 51 % 1025 hPa 0,0 l/m N-NO 11,4 km/h (2 Bft)
08.09.2006 14:00 19,0 C 47 % 1025 hPa 0,0 l/m O-NO 11,9 km/h (2 Bft)
08.09.2006 15:00 19,4 C 44 % 1025 hPa 0,0 l/m N 10,6 km/h (2 Bft)
08.09.2006 16:00 18,4 C 46 % 1025 hPa 0,0 l/m N-NO 13,0 km/h (3 Bft)
08.09.2006 17:00 18,0 C 48 % 1025 hPa 0,0 l/m O-NO 12,0 km/h (2 Bft)
08.09.2006 18:00 17,8 C 48 % 1025 hPa 0,0 l/m NO 10,7 km/h (2 Bft)
08.09.2006 19:00 16,1 C 53 % 1025 hPa 0,0 l/m NO 8,1 km/h (2 Bft)
08.09.2006 20:00 14,6 C 60 % 1025 hPa 0,0 l/m N-NO 5,0 km/h (1 Bft)
08.09.2006 21:00 13,2 C 66 % 1026 hPa 0,0 l/m N-NO 7,1 km/h (2 Bft)
08.09.2006 22:00 12,6 C 68 % 1026 hPa 0,0 l/m N-NO 8,9 km/h (2 Bft)
08.09.2006 23:00 12,1 C 70 % 1025 hPa 0,0 l/m N-NO 8,9 km/h (2 Bft)
09.09.2006 00:00 11,5 C 72 % 1025 hPa 0,0 l/m N-NO 8,1 km/h (2 Bft)
09.09.2006 01:00 10,9 C 73 % 1025 hPa 0,0 l/m N-NO 6,0 km/h (2 Bft)
09.09.2006 02:00 10,0 C 77 % 1025 hPa 0,0 l/m N 4,9 km/h (1 Bft)
09.09.2006 03:00 9,4 C 81 % 1025 hPa 0,0 l/m N 5,8 km/h (2 Bft)
09.09.2006 04:00 8,9 C 84 % 1024 hPa 0,0 l/m N 6,8 km/h (2 Bft)
09.09.2006 05:00 8,5 C 86 % 1024 hPa 0,0 l/m N-NW 6,3 km/h (2 Bft)
09.09.2006 06:00 8,0 C 88 % 1024 hPa 0,0 l/m N-NW 5,9 km/h (2 Bft)
09.09.2006 07:00 7,9 C 92 % 1025 hPa 0,0 l/m N-NW 6,4 km/h (2 Bft)
09.09.2006 08:00 9,1 C 89 % 1025 hPa 0,0 l/m N 7,7 km/h (2 Bft)
09.09.2006 09:00 11,5 C 78 % 1025 hPa 0,0 l/m N-NO 9,0 km/h (2 Bft)
09.09.2006 10:00 15,0 C 62 % 1025 hPa 0,0 l/m NO 12,5 km/h (3 Bft)
09.09.2006 11:00 17,2 C 53 % 1025 hPa 0,0 l/m NO 13,9 km/h (3 Bft)
09.09.2006 12:00 18,5 C 47 % 1024 hPa 0,0 l/m N-NO 14,4 km/h (3 Bft)
09.09.2006 13:00 19,9 C 42 % 1024 hPa 0,0 l/m NO 15,5 km/h (3 Bft)
09.09.2006 14:00 20,7 C 38 % 1024 hPa 0,0 l/m O-NO 16,6 km/h (3 Bft)
09.09.2006 15:00 21,0 C 38 % 1024 hPa 0,0 l/m O-NO 15,6 km/h (3 Bft)
09.09.2006 16:00 20,2 C 42 % 1023 hPa 0,0 l/m O-NO 14,4 km/h (3 Bft)
09.09.2006 17:00 20,0 C 42 % 1023 hPa 0,0 l/m O-NO 13,4 km/h (3 Bft)
09.09.2006 18:00 19,7 C 43 % 1023 hPa 0,0 l/m NO 10,1 km/h (2 Bft)
09.09.2006 19:00 18,0 C 50 % 1023 hPa 0,0 l/m N-NO 6,3 km/h (2 Bft)
09.09.2006 20:00 15,8 C 59 % 1023 hPa 0,0 l/m N 3,2 km/h (1 Bft)
09.09.2006 21:00 13,9 C 68 % 1023 hPa 0,0 l/m NW 4,0 km/h (1 Bft)
09.09.2006 22:00 12,9 C 72 % 1023 hPa 0,0 l/m NW 6,2 km/h (2 Bft)
09.09.2006 23:00 11,9 C 77 % 1023 hPa 0,0 l/m NW 4,3 km/h (1 Bft)
10.09.2006 00:00 10,9 C 82 % 1023 hPa 0,0 l/m W-NW 4,6 km/h (1 Bft)
10.09.2006 01:00 10,3 C 85 % 1023 hPa 0,0 l/m W-NW 4,3 km/h (1 Bft)
10.09.2006 02:00 9,8 C 87 % 1023 hPa 0,0 l/m W-NW 1,9 km/h (1 Bft)
10.09.2006 03:00 9,3 C 90 % 1023 hPa 0,0 l/m W-NW 1,0 km/h (0 Bft)
10.09.2006 04:00 8,9 C 92 % 1023 hPa 0,0 l/m W-NW 0,4 km/h (0 Bft)
10.09.2006 05:00 8,6 C 94 % 1023 hPa 0,0 l/m NW 1,1 km/h (0 Bft)
10.09.2006 06:00 8,3 C 95 % 1023 hPa 0,0 l/m N 0,0 km/h (0 Bft)
10.09.2006 07:00 8,3 C 96 % 1023 hPa 0,0 l/m N 0,0 km/h (0 Bft)
10.09.2006 08:00 9,5 C 94 % 1023 hPa 0,0 l/m N-NW 0,2 km/h (0 Bft)
10.09.2006 09:00 11,6 C 87 % 1024 hPa 0,0 l/m N-NW 1,6 km/h (1 Bft)
10.09.2006 10:00 14,9 C 76 % 1024 hPa 0,0 l/m NO 1,5 km/h (1 Bft)
10.09.2006 11:00 18,1 C 69 % 1024 hPa 0,0 l/m NO 2,6 km/h (1 Bft)
10.09.2006 12:00 20,0 C 65 % 1023 hPa 0,0 l/m O 3,4 km/h (1 Bft)
10.09.2006 13:00 22,4 C 57 % 1023 hPa 0,0 l/m O 4,0 km/h (1 Bft)
10.09.2006 14:00 24,6 C 52 % 1023 hPa 0,0 l/m O 3,7 km/h (1 Bft)
10.09.2006 15:00 25,2 C 51 % 1023 hPa 0,0 l/m O 3,5 km/h (1 Bft)
10.09.2006 16:00 24,8 C 54 % 1022 hPa 0,0 l/m O 4,5 km/h (1 Bft)
10.09.2006 17:00 24,4 C 58 % 1022 hPa 0,0 l/m S 3,5 km/h (1 Bft)
10.09.2006 18:00 24,0 C 64 % 1022 hPa 0,0 l/m S 5,3 km/h (1 Bft)
10.09.2006 19:00 21,7 C 72 % 1022 hPa 0,0 l/m S-SW 0,5 km/h (0 Bft)
10.09.2006 20:00 19,7 C 82 % 1022 hPa 0,0 l/m N 0,0 km/h (0 Bft)
10.09.2006 21:00 18,1 C 90 % 1023 hPa 0,0 l/m N 0,0 km/h (0 Bft)
10.09.2006 22:00 16,9 C 94 % 1023 hPa 0,0 l/m N 0,0 km/h (0 Bft)
10.09.2006 23:00 16,1 C 97 % 1023 hPa 0,0 l/m N 0,0 km/h (0 Bft)
Min-Datum _ 09.09.06 07.09.06 07.09.06 - - 04.09.06
_ Min-Zeit 07:08 15:40 13:18 - - 00:15
Minimum _ 7,5 C 34 % 1014 hPa - - 0,0 km/h (0 Bft)
Max-Datum _ 07.09.06 05.09.06 04.09.06 07.09.06 - 04.09.06
_ Max-Zeit 15:33 04:34 23:04 20:18 - 09:10
Maximum _ 29,1 C 100 % 1026 hPa 17,0 l/m - 24,8 km/h
W-SW (4 Bft)
Durchschnitt _ 17,9 C 75 % 1022 hPa #19,0 l/m N 6,0 km/h (2 Bft)

Durchschnitt Minimum Temp.17,4 C
Durchschnitt Maximum Temp.18,5 C